createdAt,value
2019-02-14T00:04:38.358Z,5.77
2019-02-14T00:10:33.351Z,4.49
2019-02-14T00:16:28.414Z,4.04
2019-02-14T00:22:23.421Z,5
2019-02-14T00:28:18.371Z,3.91
2019-02-14T00:34:13.410Z,4.45
2019-02-14T00:40:08.398Z,4.5
2019-02-14T00:46:03.437Z,4.3
2019-02-14T00:51:58.400Z,4.77
2019-02-14T00:57:53.408Z,3.74
2019-02-14T01:03:48.403Z,3.66
2019-02-14T01:09:43.404Z,3.84
2019-02-14T01:15:38.482Z,4.21
2019-02-14T01:21:33.408Z,3.63
2019-02-14T01:27:28.407Z,4.12
2019-02-14T01:33:23.428Z,3.37
2019-02-14T01:39:18.467Z,3.9
2019-02-14T01:45:13.431Z,3.93
2019-02-14T01:51:08.450Z,3.86
2019-02-14T01:57:03.510Z,3.29
2019-02-14T02:02:58.540Z,3.4
2019-02-14T02:08:53.460Z,3.92
2019-02-14T02:14:48.528Z,3.22
2019-02-14T02:20:43.468Z,4.03
2019-02-14T02:26:38.515Z,2.93
2019-02-14T02:32:33.482Z,3.13
2019-02-14T02:38:28.492Z,3.77
2019-02-14T02:44:23.493Z,5.09
2019-02-14T02:50:18.497Z,7.86
2019-02-14T02:56:13.500Z,10.08
2019-02-14T03:02:08.533Z,10.64
2019-02-14T03:08:03.511Z,9.37
2019-02-14T03:13:58.589Z,9.57
2019-02-14T03:19:53.565Z,7.77
2019-02-14T03:25:48.512Z,7.86
2019-02-14T03:31:43.535Z,7.17
2019-02-14T03:37:38.538Z,8.73
2019-02-14T03:43:33.536Z,8.85
2019-02-14T03:49:28.541Z,10.1
2019-02-14T03:55:23.658Z,7.35
2019-02-14T04:01:18.566Z,10.06
2019-02-14T04:07:13.583Z,9.8
2019-02-14T04:13:08.559Z,10.43
2019-02-14T04:19:03.570Z,6.61
2019-02-14T04:24:58.556Z,7.95
2019-02-14T04:30:53.572Z,7.93
2019-02-14T04:36:48.622Z,9.09
2019-02-14T04:42:43.590Z,8.83
2019-02-14T04:48:38.586Z,8.61
2019-02-14T04:54:33.590Z,6.48
2019-02-14T05:00:28.602Z,10.83
2019-02-14T05:06:23.602Z,8.22
2019-02-14T05:12:18.650Z,8.27
2019-02-14T05:18:13.623Z,9.07
2019-02-14T05:24:08.609Z,8.2
2019-02-14T05:30:03.631Z,8.71
2019-02-14T05:35:58.646Z,9.32
2019-02-14T05:41:53.634Z,8.4
2019-02-14T05:47:48.634Z,8.13
2019-02-14T05:53:43.648Z,8.32
2019-02-14T05:59:38.705Z,6.62
2019-02-14T06:05:33.661Z,6.8
2019-02-14T06:11:28.666Z,5.79
2019-02-14T06:17:23.661Z,5.8
2019-02-14T06:23:18.684Z,8.62
2019-02-14T06:29:13.657Z,7.88
2019-02-14T06:35:08.714Z,7.85
2019-02-14T06:41:03.767Z,10.37
2019-02-14T06:46:58.693Z,11.57
2019-02-14T06:52:53.696Z,12.62
2019-02-14T06:58:48.701Z,11.76
2019-02-14T07:04:43.691Z,9.35
2019-02-14T07:10:38.718Z,10.84
2019-02-14T07:16:33.704Z,10.01
2019-02-14T07:22:28.746Z,7.93
2019-02-14T07:28:23.743Z,14.27
2019-02-14T07:34:18.739Z,15.4
2019-02-14T07:40:13.726Z,15.67
2019-02-14T07:46:08.764Z,14.72
2019-02-14T07:52:03.744Z,12.01
2019-02-14T07:57:58.730Z,10.66
2019-02-14T08:03:53.757Z,10.45
2019-02-14T08:09:48.767Z,13.2
2019-02-14T08:15:43.749Z,15.87
2019-02-14T08:21:38.789Z,14.2
2019-02-14T08:27:33.781Z,13.16
2019-02-14T08:33:28.757Z,12.73
2019-02-14T08:39:23.777Z,14.92
2019-02-14T08:45:18.781Z,15.7
2019-02-14T08:51:13.803Z,16.75
2019-02-14T08:57:08.813Z,17.39
2019-02-14T09:03:03.808Z,16
2019-02-14T09:08:58.828Z,16.79
2019-02-14T09:14:53.807Z,14.63
2019-02-14T09:20:48.803Z,14.74
2019-02-14T09:26:43.875Z,14.75
2019-02-14T09:32:38.841Z,10.86
2019-02-14T09:38:33.842Z,13.83
2019-02-14T09:44:28.846Z,11.26
2019-02-14T09:50:23.876Z,10.81
2019-02-14T09:56:18.853Z,15.77
2019-02-14T10:02:13.833Z,15.12
2019-02-14T10:08:12.621Z,15.7
2019-02-14T10:14:03.873Z,18.2
2019-02-14T10:19:58.883Z,17.29
2019-02-14T10:25:53.864Z,17.96
2019-02-14T10:31:48.970Z,14.12
2019-02-14T10:37:43.884Z,12.4
2019-02-14T10:43:38.893Z,12.72
2019-02-14T10:49:33.884Z,13.74
2019-02-14T10:55:28.892Z,15.05
2019-02-14T11:01:23.906Z,16.44
2019-02-14T11:07:18.906Z,14.15
2019-02-14T11:13:13.913Z,16.09
2019-02-14T11:19:08.974Z,14.27
2019-02-14T11:25:03.982Z,16.48
2019-02-14T11:30:58.954Z,17.36
2019-02-14T11:36:53.940Z,16.22
2019-02-14T11:42:48.971Z,16.16
2019-02-14T11:48:43.970Z,14.43
2019-02-14T11:54:38.981Z,12.78
2019-02-14T12:00:33.954Z,11.36
2019-02-14T12:06:29.009Z,12.23
2019-02-14T12:12:25.468Z,11.9
2019-02-14T12:18:18.978Z,11.13
2019-02-14T12:24:14.018Z,11.17
2019-02-14T12:30:08.998Z,12.06
2019-02-14T12:36:04.021Z,12.09
2019-02-14T12:41:59.003Z,11.25
2019-02-14T12:47:54.018Z,12.52
2019-02-14T12:53:49.023Z,11.07
2019-02-14T12:59:43.998Z,11.13
2019-02-14T13:05:39.053Z,11.35
2019-02-14T13:11:34.017Z,11.82
2019-02-14T13:17:29.049Z,9.29
2019-02-14T13:23:24.048Z,9.68
2019-02-14T13:29:19.071Z,10.24
2019-02-14T13:35:14.036Z,9.7
2019-02-14T13:41:09.094Z,9.04
2019-02-14T13:47:04.114Z,7.96
2019-02-14T13:52:59.081Z,8.52
2019-02-14T13:58:54.079Z,8.56
2019-02-14T14:04:49.068Z,7.56
2019-02-14T14:10:44.094Z,7.94
2019-02-14T14:16:39.091Z,7.22
2019-02-14T14:22:34.108Z,7.12
2019-02-14T14:28:29.111Z,6.58
2019-02-14T14:34:24.109Z,7.66
2019-02-14T14:40:20.368Z,7.43
2019-02-14T14:46:14.155Z,8.22
2019-02-14T14:52:09.130Z,8.07
2019-02-14T14:58:04.135Z,7.99
2019-02-14T15:03:59.142Z,9.09
2019-02-14T15:09:57.403Z,8.19
2019-02-14T15:15:49.148Z,9.57
2019-02-14T15:21:44.160Z,8.77
2019-02-14T15:27:39.163Z,9.45
2019-02-14T15:33:34.192Z,7.96
2019-02-14T15:39:29.178Z,7.65
2019-02-14T15:45:24.216Z,8.33
2019-02-14T15:51:20.005Z,5.66
2019-02-14T15:57:16.012Z,5.9
2019-02-14T16:03:09.201Z,5.98
2019-02-14T16:09:04.246Z,6.8
2019-02-14T16:14:59.237Z,7.03
2019-02-14T16:20:54.212Z,7.54
2019-02-14T16:26:49.201Z,7.59
2019-02-14T16:32:44.228Z,9.31
2019-02-14T16:38:39.251Z,12.07
2019-02-14T16:44:34.292Z,11.61
2019-02-14T16:50:29.322Z,11.96
2019-02-14T16:56:24.284Z,9.89
2019-02-14T17:02:19.259Z,10.72
2019-02-14T17:08:14.247Z,10.7
2019-02-14T17:14:09.246Z,13.41
2019-02-14T17:20:04.277Z,12.49
2019-02-14T17:25:59.269Z,29.99293
2019-02-14T17:31:54.313Z,12.56
2019-02-14T17:37:49.344Z,10.94
2019-02-14T17:43:44.304Z,11.24
2019-02-14T17:49:39.262Z,12.76
2019-02-14T17:55:34.279Z,12.93
2019-02-14T18:01:29.292Z,13.56
2019-02-14T18:07:24.280Z,14.26
2019-02-14T18:13:19.300Z,11.08
2019-02-14T18:19:14.305Z,11.03
2019-02-14T18:25:09.312Z,15.05
2019-02-14T18:31:04.343Z,12.27
2019-02-14T18:36:59.312Z,14.3
2019-02-14T18:42:54.307Z,11.71
2019-02-14T18:48:49.369Z,13.47
2019-02-14T18:54:44.379Z,12.9
2019-02-14T19:00:39.351Z,10.9
2019-02-14T19:06:34.398Z,10.98
2019-02-14T19:12:29.348Z,12.06
2019-02-14T19:18:24.372Z,9.98
2019-02-14T19:24:19.367Z,11
2019-02-14T19:30:14.356Z,10.2
2019-02-14T19:36:09.388Z,10.09
2019-02-14T19:42:04.387Z,12.25
2019-02-14T19:47:59.421Z,12.75
2019-02-14T19:53:54.381Z,11.9
2019-02-14T19:59:49.426Z,11.94
2019-02-14T20:05:44.408Z,11.81
2019-02-14T20:11:39.398Z,12.96
2019-02-14T20:17:34.464Z,14.12
2019-02-14T20:23:29.407Z,13.95
2019-02-14T20:29:24.546Z,13.2
2019-02-14T20:35:19.434Z,13.5
2019-02-14T20:41:14.459Z,12.83
2019-02-14T20:47:09.413Z,14.72
2019-02-14T20:53:04.446Z,15.59
2019-02-14T20:58:59.451Z,15.53
2019-02-14T21:04:54.521Z,14.2
2019-02-14T21:10:49.507Z,14.78
2019-02-14T21:16:44.464Z,13.61
2019-02-14T21:22:39.502Z,12.97
2019-02-14T21:28:34.499Z,13.06
2019-02-14T21:34:29.509Z,12.61
2019-02-14T21:40:24.549Z,12.97
2019-02-14T21:46:19.492Z,13.67
2019-02-14T21:52:14.497Z,13.48
2019-02-14T21:58:09.507Z,13.17
2019-02-14T22:04:04.525Z,13.42
2019-02-14T22:09:59.503Z,12.95
2019-02-14T22:15:54.514Z,12.71
2019-02-14T22:21:49.515Z,12.49
2019-02-14T22:27:44.521Z,19.4
2019-02-14T22:33:39.543Z,11.04
2019-02-14T22:39:34.525Z,11.09
2019-02-14T22:45:29.534Z,10.78
2019-02-14T22:51:24.553Z,10.67
2019-02-14T22:57:19.553Z,10.73
2019-02-14T23:03:14.582Z,11.47
2019-02-14T23:09:09.553Z,11.78
2019-02-14T23:15:04.563Z,10
2019-02-14T23:20:59.589Z,11
2019-02-14T23:26:54.613Z,10.87
2019-02-14T23:32:49.587Z,11.99
2019-02-14T23:38:44.572Z,12.23
2019-02-14T23:44:39.602Z,11.28
2019-02-14T23:50:34.638Z,11.28
2019-02-14T23:56:29.616Z,9.92
